WIMMWMKP

Guest
Details From WIMM - Medan/Polonia
To WMKP - Penang Intl
Flight Number -
Tags generated
Created
Modified
Stats Distance 142 nm / 263 km
Max Altitude 13,000 ft / 3,962 m
Waypoints 4
Social Downloads 3
Likes 0
Share VATSIM

Download

Looking for another format? Having issues loading an existing format? Contact us
Advertisement - Login to hide

Notes

Basic altitude profile: - Ascent Rate: 2500ft/min - Ascent Speed: 250kts - Cruise Altitude: 35000ft - Cruise Speed: 420kts - Descent Rate: 1500ft/min - Descent Speed: 250kts Options: - Use NATs: yes - Use PACOTS: yes - Use low airways: yes - Use high airways: yes

Route

WIMM GUNIP G468 VPG WMKP

ID Type Via Altitude Latitude Longitude Leg Dist Tot Dist Heading (true) Name
O WIMM APT - 0 ft / 0 m 3.55806˚ 98.67172˚ - 0 nm - Medan/Polonia
GUNIP FIX - 13,000 ft / 3,962 m 4.49806˚ 99.53056˚ 76 nm 76 nm 42° / 42° -
VPG VOR G468 (AWY-LO) 8,500 ft / 2,591 m 5.27964˚ 100.26039˚ 64 nm 140 nm 43° / 43° PENANG VOR-DME
O WMKP APT - 0 ft / 0 m 5.29714˚ 100.27686˚ 1 nm 141 nm 43° / 43° Penang Intl

Altitude Profile

Advertisement - Login to hide

WIMM

Details ICAO WIMM (MES)
Name Medan/Polonia
Region Indonesia
Timezone Asia/Jakarta (UTC+7.0)
Stats Elevation 90 ft / 27 m (AMSL)
Location 3.558057° 98.671716°
Runways 1
Magnetic Variation 0.321° W

METAR

WIMM 130530Z 32008KT 240V350 9000 SCT018TCU 30/25 Q1011

Decode

TAF

Not found

Departure Runways

ID Width Length Bearing (true) Bearing (mag) Surface Threshold Offset Overrun Length
05 148 ft / 45 m 9,531 ft / 2,905 m 46.55° 46.87° Asphalt 910 ft / 277 m 197 ft / 60 m
23 148 ft / 45 m 9,531 ft / 2,905 m 226.55° 226.87° Asphalt 0 ft / 0 m 325 ft / 99 m

WMKP

Details ICAO WMKP (PEN)
Name Penang Intl
Region Malaysia (Peninsular Malaysia)
Timezone Asia/Kuala_Lumpur (UTC+8.0)
Stats Elevation 11 ft / 3 m (AMSL)
Location 5.297141° 100.276865°
Runways 1
Magnetic Variation 0.206° W

METAR

WMKP 130600Z VRB02KT 9999 SCT020 BKN280 31/24 Q1010 NOSIG

Decode

TAF

TAF WMKP 130500Z 1306/1406 02005KT 8000 FEW020 SCT140 BKN270

Decode

Destination Runways

ID Width Length Bearing (true) Bearing (mag) Surface Threshold Offset Overrun Length
04 150 ft / 46 m 11,042 ft / 3,366 m 42.02° 42.23° Asphalt 0 ft / 0 m 205 ft / 62 m
22 150 ft / 46 m 11,042 ft / 3,366 m 222.02° 222.23° Asphalt 0 ft / 0 m 205 ft / 62 m

Approach Navaids

Runway Type Ident Frequency Range Bearing (true) Bearing (mag) Slope Elevation
04 Localiser IPG 109.90 MHz 18 nm / 33 km 42.88° 43.09° - 12 ft / 4 m (AMSL)
04 Glidescope IPG 109.90 MHz 10 nm / 19 km 42.02° 42.22° 3.00° 11 ft / 3 m (AMSL)
04 DME IPG 109.90 MHz 18 nm / 33 km - - - 11 ft / 3 m (AMSL)

Popular Alternatives